createdAt,value
2022-08-14T00:00:32.316Z,20.46
2022-08-14T00:01:32.373Z,20.42
2022-08-14T00:02:32.402Z,20.40
2022-08-14T00:03:32.386Z,20.37
2022-08-14T00:04:35.703Z,20.36
2022-08-14T00:05:32.425Z,20.46
2022-08-14T00:06:32.450Z,20.32
2022-08-14T00:07:32.472Z,20.34
2022-08-14T00:08:44.986Z,20.33
2022-08-14T00:09:33.015Z,20.29
2022-08-14T00:10:52.972Z,20.32
2022-08-14T00:11:32.562Z,20.22
2022-08-14T00:12:33.417Z,20.24
2022-08-14T00:13:32.606Z,20.26
2022-08-14T00:14:32.628Z,20.24
2022-08-14T00:15:43.475Z,20.27
2022-08-14T00:16:40.357Z,20.21
2022-08-14T00:17:38.001Z,20.24
2022-08-14T00:19:06.087Z,20.24
2022-08-14T00:19:32.741Z,20.29
2022-08-14T00:20:41.143Z,20.21
2022-08-14T00:21:32.783Z,20.15
2022-08-14T00:22:56.223Z,20.14
2022-08-14T00:23:32.829Z,20.15
2022-08-14T00:24:32.858Z,20.17
2022-08-14T00:25:42.481Z,20.17
2022-08-14T00:26:32.895Z,20.18
2022-08-14T00:27:37.578Z,20.12
2022-08-14T00:28:35.428Z,20.11
2022-08-14T00:29:40.700Z,20.11
2022-08-14T00:30:32.985Z,20.10
2022-08-14T00:31:44.054Z,20.12
2022-08-14T00:33:01.532Z,20.11
2022-08-14T00:33:51.516Z,20.08
2022-08-14T00:34:37.329Z,20.07
2022-08-14T00:36:36.542Z,20.02
2022-08-14T00:36:37.543Z,20.00
2022-08-14T00:37:33.141Z,19.96
2022-08-14T00:38:34.801Z,19.94
2022-08-14T00:39:33.231Z,20.03
2022-08-14T00:40:35.698Z,19.90
2022-08-14T00:41:33.319Z,19.94
2022-08-14T00:42:55.441Z,19.87
2022-08-14T00:43:33.273Z,19.90
2022-08-14T00:44:33.503Z,19.87
2022-08-14T00:45:33.317Z,19.89
2022-08-14T00:46:33.672Z,19.90
2022-08-14T00:47:33.363Z,19.84
2022-08-14T00:48:33.934Z,19.75
2022-08-14T00:49:38.122Z,19.87
2022-08-14T00:50:33.428Z,19.79
2022-08-14T00:51:36.871Z,19.78
2022-08-14T00:52:33.474Z,19.79
2022-08-14T00:53:33.497Z,19.77
2022-08-14T00:54:33.517Z,19.77
2022-08-14T00:55:35.975Z,19.82
2022-08-14T00:56:33.561Z,19.75
2022-08-14T00:57:33.584Z,19.70
2022-08-14T00:58:33.606Z,19.74
2022-08-14T00:59:33.627Z,19.67
2022-08-14T01:00:37.580Z,19.71
2022-08-14T01:01:33.760Z,19.67
2022-08-14T01:02:33.694Z,19.67
2022-08-14T01:03:33.714Z,19.70
2022-08-14T01:04:38.033Z,19.64
2022-08-14T01:05:41.864Z,19.72
2022-08-14T01:06:34.317Z,19.75
2022-08-14T01:07:38.833Z,19.66
2022-08-14T01:08:52.198Z,19.63
2022-08-14T01:09:33.856Z,19.74
2022-08-14T01:10:38.458Z,19.70
2022-08-14T01:11:36.216Z,19.67
2022-08-14T01:12:33.913Z,19.67
2022-08-14T01:13:42.352Z,19.67
2022-08-14T01:14:33.958Z,19.66
2022-08-14T01:15:57.779Z,19.62
2022-08-14T01:16:34.001Z,19.60
2022-08-14T01:17:34.026Z,19.62
2022-08-14T01:18:34.048Z,19.60
2022-08-14T01:19:34.069Z,19.62
2022-08-14T01:20:34.090Z,19.62
2022-08-14T01:21:34.786Z,19.59
2022-08-14T01:22:34.135Z,19.62
2022-08-14T01:23:41.697Z,19.59
2022-08-14T01:24:34.686Z,19.67
2022-08-14T01:25:34.200Z,19.60
2022-08-14T01:26:35.205Z,19.64
2022-08-14T01:27:53.479Z,19.60
2022-08-14T01:28:55.949Z,19.62
2022-08-14T01:29:58.799Z,19.59
2022-08-14T01:30:38.247Z,19.60
2022-08-14T01:31:34.952Z,19.60
2022-08-14T01:32:37.433Z,19.62
2022-08-14T01:33:44.661Z,19.57
2022-08-14T01:35:18.333Z,19.63
2022-08-14T01:36:03.623Z,19.62
2022-08-14T01:36:35.611Z,19.59
2022-08-14T01:37:34.465Z,19.59
2022-08-14T01:38:37.239Z,19.60
2022-08-14T01:39:34.529Z,19.60
2022-08-14T01:40:40.936Z,19.60
2022-08-14T01:41:34.554Z,19.59
2022-08-14T01:42:45.895Z,19.67
2022-08-14T01:43:35.851Z,19.60
2022-08-14T01:44:34.652Z,19.60
2022-08-14T01:45:40.325Z,19.62
2022-08-14T01:46:36.619Z,19.62
2022-08-14T01:47:37.437Z,19.57
2022-08-14T01:48:37.694Z,19.57
2022-08-14T01:49:35.765Z,19.62
2022-08-14T01:50:34.753Z,19.59
2022-08-14T01:51:34.778Z,19.59
2022-08-14T01:52:58.699Z,19.59
2022-08-14T01:53:35.791Z,19.71
2022-08-14T01:54:38.017Z,19.72
2022-08-14T01:55:34.874Z,19.66
2022-08-14T01:56:37.457Z,19.70
2022-08-14T01:58:01.884Z,19.71
2022-08-14T01:58:34.929Z,19.62
2022-08-14T01:59:37.983Z,19.77
2022-08-14T02:00:36.043Z,19.77
2022-08-14T02:01:35.042Z,19.74
2022-08-14T02:02:36.726Z,19.71
2022-08-14T02:03:35.043Z,19.78
2022-08-14T02:04:55.094Z,19.79
2022-08-14T02:05:35.847Z,19.74
2022-08-14T02:06:35.106Z,19.71
2022-08-14T02:07:53.475Z,19.67
2022-08-14T02:08:35.834Z,19.78
2022-08-14T02:09:35.172Z,19.70
2022-08-14T02:10:35.195Z,19.72
2022-08-14T02:11:35.248Z,19.64
2022-08-14T02:12:35.238Z,19.78
2022-08-14T02:13:37.114Z,19.75
2022-08-14T02:14:35.283Z,19.75
2022-08-14T02:15:35.308Z,19.77
2022-08-14T02:16:35.327Z,19.74
2022-08-14T02:17:35.352Z,19.79
2022-08-14T02:18:35.376Z,19.77
2022-08-14T02:19:35.445Z,19.74
2022-08-14T02:20:35.962Z,19.82
2022-08-14T02:21:43.654Z,19.75
2022-08-14T02:22:35.465Z,19.82
2022-08-14T02:23:36.336Z,19.81
2022-08-14T02:24:40.474Z,19.78
2022-08-14T02:25:35.575Z,19.92
2022-08-14T02:28:18.342Z,19.90
2022-08-14T02:28:22.112Z,19.92
2022-08-14T02:28:57.344Z,19.94
2022-08-14T02:29:59.419Z,19.85
2022-08-14T02:30:38.325Z,19.90
2022-08-14T02:31:42.550Z,19.82
2022-08-14T02:32:36.620Z,19.89
2022-08-14T02:33:39.053Z,19.94
2022-08-14T02:34:36.288Z,19.92
2022-08-14T02:35:40.789Z,19.97
2022-08-14T02:37:03.453Z,19.84
2022-08-14T02:37:47.190Z,19.94
2022-08-14T02:38:35.817Z,19.92
2022-08-14T02:39:36.226Z,19.94
2022-08-14T02:40:36.242Z,19.99
2022-08-14T02:41:39.990Z,20.00
2022-08-14T02:42:54.117Z,20.00
2022-08-14T02:43:37.204Z,20.03
2022-08-14T02:44:39.456Z,20.00
2022-08-14T02:45:42.292Z,20.02
2022-08-14T02:46:35.999Z,20.00
2022-08-14T02:47:36.018Z,20.03
2022-08-14T02:49:01.079Z,20.07
2022-08-14T02:49:36.062Z,20.04
2022-08-14T02:50:36.088Z,20.04
2022-08-14T02:51:36.593Z,20.04
2022-08-14T02:52:57.082Z,20.08
2022-08-14T02:53:37.457Z,20.02
2022-08-14T02:54:36.176Z,20.07
2022-08-14T02:55:36.198Z,20.04
2022-08-14T02:57:15.833Z,20.12
2022-08-14T02:57:40.063Z,20.07
2022-08-14T02:58:37.182Z,20.14
2022-08-14T02:59:36.287Z,20.11
2022-08-14T03:00:40.449Z,20.07
2022-08-14T03:01:50.660Z,20.12
2022-08-14T03:02:56.758Z,20.12
2022-08-14T03:03:38.813Z,20.12
2022-08-14T03:04:36.402Z,20.12
2022-08-14T03:05:37.169Z,20.17
2022-08-14T03:06:57.430Z,20.12
2022-08-14T03:07:36.466Z,20.14
2022-08-14T03:08:36.488Z,20.11
2022-08-14T03:10:25.090Z,20.11
2022-08-14T03:10:36.532Z,20.11
2022-08-14T03:11:36.557Z,20.15
2022-08-14T03:12:36.658Z,20.14
2022-08-14T03:13:36.602Z,20.14
2022-08-14T03:14:36.624Z,20.08
2022-08-14T03:15:36.647Z,20.12
2022-08-14T03:16:38.522Z,20.15
2022-08-14T03:17:40.978Z,20.18
2022-08-14T03:18:36.715Z,20.10
2022-08-14T03:19:36.785Z,20.15
2022-08-14T03:20:36.761Z,20.19
2022-08-14T03:21:36.781Z,20.15
2022-08-14T03:22:36.816Z,20.17
2022-08-14T03:23:38.641Z,20.11
2022-08-14T03:24:36.847Z,20.12
2022-08-14T03:25:37.423Z,20.15
2022-08-14T03:26:36.893Z,20.14
2022-08-14T03:27:48.188Z,20.15
2022-08-14T03:28:36.936Z,20.12
2022-08-14T03:29:36.960Z,20.15
2022-08-14T03:30:39.136Z,20.18
2022-08-14T03:31:37.006Z,20.15
2022-08-14T03:32:37.027Z,20.12
2022-08-14T03:33:38.020Z,20.21
2022-08-14T03:34:52.773Z,20.08
2022-08-14T03:35:39.822Z,20.12
2022-08-14T03:37:51.281Z,20.15
2022-08-14T03:39:06.389Z,20.17
2022-08-14T03:39:14.627Z,20.17
2022-08-14T03:39:37.223Z,20.14
2022-08-14T03:40:37.207Z,20.14
2022-08-14T03:41:37.230Z,20.14
2022-08-14T03:42:37.361Z,20.15
2022-08-14T03:43:37.276Z,20.14
2022-08-14T03:45:26.635Z,20.15
2022-08-14T03:45:37.321Z,20.14
2022-08-14T03:46:52.335Z,20.15
2022-08-14T03:47:46.680Z,20.19
2022-08-14T03:48:40.547Z,20.11
2022-08-14T03:49:40.424Z,20.12
2022-08-14T03:50:37.431Z,20.12
2022-08-14T03:51:37.455Z,20.10
2022-08-14T03:52:40.881Z,20.21
2022-08-14T03:53:37.500Z,20.15
2022-08-14T03:54:37.522Z,20.15
2022-08-14T03:55:37.546Z,20.10
2022-08-14T03:56:37.567Z,20.15
2022-08-14T03:57:37.605Z,20.08
2022-08-14T03:58:37.612Z,20.18
2022-08-14T03:59:37.633Z,20.14
2022-08-14T04:00:43.395Z,20.14
2022-08-14T04:01:39.040Z,20.17
2022-08-14T04:02:47.159Z,20.11
2022-08-14T04:03:37.728Z,20.10
2022-08-14T04:04:37.745Z,20.10
2022-08-14T04:05:42.917Z,20.12
2022-08-14T04:06:48.544Z,20.11
2022-08-14T04:07:37.814Z,20.15
2022-08-14T04:08:37.835Z,20.14
2022-08-14T04:09:37.857Z,20.14
2022-08-14T04:10:37.883Z,20.12
2022-08-14T04:11:37.903Z,20.10
2022-08-14T04:12:37.926Z,20.17
2022-08-14T04:13:39.357Z,20.17
2022-08-14T04:14:37.970Z,20.15
2022-08-14T04:15:56.643Z,20.12
2022-08-14T04:16:38.015Z,20.18
2022-08-14T04:17:38.040Z,20.15
2022-08-14T04:18:38.059Z,20.12
2022-08-14T04:19:38.084Z,20.19
2022-08-14T04:20:51.480Z,20.22
2022-08-14T04:21:39.806Z,20.15
2022-08-14T04:22:38.152Z,20.24
2022-08-14T04:23:38.175Z,20.17
2022-08-14T04:24:39.367Z,20.21
2022-08-14T04:25:38.216Z,20.22
2022-08-14T04:26:42.239Z,20.26
2022-08-14T04:27:48.731Z,20.22
2022-08-14T04:29:02.225Z,20.26
2022-08-14T04:29:38.309Z,20.26
2022-08-14T04:30:38.331Z,20.24
2022-08-14T04:32:57.682Z,20.26
2022-08-14T04:33:12.178Z,20.22
2022-08-14T04:33:38.398Z,20.19
2022-08-14T04:34:38.421Z,20.22
2022-08-14T04:35:56.460Z,20.27
2022-08-14T04:36:38.465Z,20.33
2022-08-14T04:37:38.486Z,20.21
2022-08-14T04:38:39.909Z,20.36
2022-08-14T04:39:38.551Z,20.34
2022-08-14T04:40:40.440Z,20.29
2022-08-14T04:41:38.609Z,20.44
2022-08-14T04:42:38.602Z,20.42
2022-08-14T04:43:39.549Z,20.39
2022-08-14T04:44:38.645Z,20.36
2022-08-14T04:45:38.666Z,20.37
2022-08-14T04:46:54.831Z,20.39
2022-08-14T04:47:38.715Z,20.49
2022-08-14T04:48:43.701Z,20.50
2022-08-14T04:49:46.711Z,20.53
2022-08-14T04:50:44.756Z,20.56
2022-08-14T04:51:46.820Z,20.53
2022-08-14T04:52:38.827Z,20.52
2022-08-14T04:53:42.794Z,20.55
2022-08-14T04:54:38.872Z,20.64
2022-08-14T04:55:38.898Z,20.68
2022-08-14T04:56:38.916Z,20.67
2022-08-14T04:57:38.943Z,20.59
2022-08-14T04:58:39.166Z,20.70
2022-08-14T04:59:38.986Z,20.78
2022-08-14T05:00:39.009Z,20.75
2022-08-14T05:01:39.909Z,20.80
2022-08-14T05:02:39.102Z,20.82
2022-08-14T05:03:39.077Z,20.88
2022-08-14T05:04:39.920Z,20.92
2022-08-14T05:05:39.125Z,20.95
2022-08-14T05:06:39.807Z,20.93
2022-08-14T05:07:53.877Z,21.00
2022-08-14T05:08:57.310Z,21.01
2022-08-14T05:09:43.960Z,21.04
2022-08-14T05:10:42.242Z,21.04
2022-08-14T05:11:39.264Z,21.07
2022-08-14T05:13:13.510Z,21.07
2022-08-14T05:13:59.534Z,21.05
2022-08-14T05:14:47.174Z,21.08
2022-08-14T05:15:39.699Z,21.26
2022-08-14T05:16:39.378Z,21.25
2022-08-14T05:17:43.953Z,21.20
2022-08-14T05:19:18.507Z,21.23
2022-08-14T05:19:44.934Z,21.20
2022-08-14T05:21:57.528Z,21.20
2022-08-14T05:22:01.367Z,21.32
2022-08-14T05:22:39.585Z,21.29
2022-08-14T05:23:39.540Z,21.33
2022-08-14T05:24:39.564Z,21.37
2022-08-14T05:25:39.587Z,21.30
2022-08-14T05:26:39.612Z,21.32
2022-08-14T05:27:39.655Z,21.45
2022-08-14T05:28:39.658Z,21.45
2022-08-14T05:29:39.681Z,21.50
2022-08-14T05:30:39.707Z,21.51
2022-08-14T05:31:40.538Z,21.53
2022-08-14T05:32:39.831Z,21.60
2022-08-14T05:33:39.775Z,21.65
2022-08-14T05:34:39.798Z,21.62
2022-08-14T05:35:42.545Z,21.65
2022-08-14T05:36:39.844Z,21.74
2022-08-14T05:37:39.869Z,21.77
2022-08-14T05:38:39.894Z,21.85
2022-08-14T05:39:40.897Z,21.88
2022-08-14T05:40:39.941Z,21.94
2022-08-14T05:41:53.809Z,21.91
2022-08-14T05:42:39.988Z,22.04
2022-08-14T05:43:41.643Z,22.08
2022-08-14T05:44:40.036Z,22.07
2022-08-14T05:45:40.059Z,22.14
2022-08-14T05:46:40.082Z,22.08
2022-08-14T05:47:40.108Z,22.18
2022-08-14T05:48:43.215Z,22.25
2022-08-14T05:49:40.157Z,22.26
2022-08-14T05:50:40.179Z,22.30
2022-08-14T05:51:40.204Z,22.33
2022-08-14T05:52:40.251Z,22.44
2022-08-14T05:53:42.085Z,22.51
2022-08-14T05:54:40.281Z,22.53
2022-08-14T05:55:42.909Z,22.62
2022-08-14T05:56:40.323Z,22.62
2022-08-14T05:57:40.349Z,22.70
2022-08-14T05:58:41.415Z,22.76
2022-08-14T05:59:40.397Z,22.76
2022-08-14T06:00:40.420Z,22.89
2022-08-14T06:01:40.504Z,22.91
2022-08-14T06:02:40.494Z,22.96
2022-08-14T06:03:40.492Z,23.07
2022-08-14T06:04:40.517Z,23.21
2022-08-14T06:05:40.542Z,23.20
2022-08-14T06:06:40.566Z,23.25
2022-08-14T06:07:40.591Z,23.37
2022-08-14T06:08:41.204Z,23.34
2022-08-14T06:09:40.919Z,23.48
2022-08-14T06:10:40.665Z,23.55
2022-08-14T06:11:40.692Z,23.67
2022-08-14T06:12:55.494Z,23.74
2022-08-14T06:13:44.523Z,23.74
2022-08-14T06:14:40.769Z,23.88
2022-08-14T06:15:40.790Z,23.85
2022-08-14T06:16:40.814Z,23.88
2022-08-14T06:17:46.106Z,24.00
2022-08-14T06:18:40.866Z,24.07
2022-08-14T06:19:40.892Z,24.04
2022-08-14T06:20:40.915Z,24.09
2022-08-14T06:21:40.941Z,24.13
2022-08-14T06:22:41.004Z,24.19
2022-08-14T06:23:40.992Z,24.18
2022-08-14T06:24:43.980Z,24.26
2022-08-14T06:25:41.042Z,24.22
2022-08-14T06:26:41.068Z,24.28
2022-08-14T06:27:41.092Z,24.36
2022-08-14T06:28:41.117Z,24.43
2022-08-14T06:29:41.145Z,24.66
2022-08-14T06:30:46.018Z,24.75
2022-08-14T06:31:41.192Z,24.84
2022-08-14T06:32:42.171Z,24.97
2022-08-14T06:35:01.299Z,25.12
2022-08-14T06:35:03.662Z,25.31
2022-08-14T06:35:41.296Z,25.37
2022-08-14T06:36:41.324Z,25.55
2022-08-14T06:37:41.550Z,25.63
2022-08-14T06:38:41.373Z,25.74
2022-08-14T06:39:41.399Z,25.91
2022-08-14T06:40:42.912Z,26.06
2022-08-14T06:41:58.771Z,26.19
2022-08-14T06:42:41.479Z,26.31
2022-08-14T06:43:45.175Z,26.49
2022-08-14T06:44:41.533Z,26.73
2022-08-14T06:45:42.071Z,26.79
2022-08-14T06:46:41.587Z,26.89
2022-08-14T06:47:43.885Z,26.97
2022-08-14T06:48:42.016Z,27.25
2022-08-14T06:49:48.461Z,27.30
2022-08-14T06:50:41.693Z,27.44
2022-08-14T06:51:44.852Z,27.48
2022-08-14T06:52:41.749Z,27.61
2022-08-14T06:53:41.774Z,27.78
2022-08-14T06:54:41.802Z,27.86
2022-08-14T06:55:57.873Z,27.83
2022-08-14T06:56:44.165Z,27.86
2022-08-14T06:57:41.885Z,27.88
2022-08-14T06:58:41.913Z,27.98
2022-08-14T06:59:42.022Z,27.90
2022-08-14T07:00:41.976Z,28.03
2022-08-14T07:01:42.062Z,28.03
2022-08-14T07:02:43.656Z,28.09
2022-08-14T07:03:42.052Z,28.03
2022-08-14T07:04:42.079Z,28.15
2022-08-14T07:05:42.117Z,28.13
2022-08-14T07:06:46.616Z,28.16
2022-08-14T07:07:42.730Z,28.18
2022-08-14T07:08:42.188Z,28.25
2022-08-14T07:09:50.520Z,28.30
2022-08-14T07:10:42.244Z,28.38
2022-08-14T07:11:42.272Z,28.45
2022-08-14T07:12:56.234Z,28.64
2022-08-14T07:13:42.328Z,28.67
2022-08-14T07:14:42.356Z,28.80
2022-08-14T07:15:42.519Z,28.86
2022-08-14T07:16:42.412Z,28.94
2022-08-14T07:17:42.439Z,29.10
2022-08-14T07:18:42.472Z,29.06
2022-08-14T07:19:42.497Z,29.03
2022-08-14T07:20:42.523Z,29.13
2022-08-14T07:21:42.554Z,29.09
2022-08-14T07:22:56.340Z,29.21
2022-08-14T07:23:44.177Z,29.09
2022-08-14T07:24:42.636Z,29.22
2022-08-14T07:25:43.852Z,29.25
2022-08-14T07:26:42.693Z,29.35
2022-08-14T07:27:42.943Z,29.46
2022-08-14T07:28:43.457Z,29.57
2022-08-14T07:29:42.778Z,29.65
2022-08-14T07:30:50.796Z,29.69
2022-08-14T07:31:42.836Z,29.79
2022-08-14T07:32:42.864Z,30.11
2022-08-14T07:33:45.592Z,30.11
2022-08-14T07:34:42.922Z,30.06
2022-08-14T07:35:57.910Z,30.05
2022-08-14T07:36:42.981Z,30.16
2022-08-14T07:37:43.010Z,30.21
2022-08-14T07:38:43.040Z,30.32
2022-08-14T07:39:43.367Z,30.38
2022-08-14T07:40:43.098Z,30.48
2022-08-14T07:41:43.130Z,30.48
2022-08-14T07:42:43.324Z,30.55
2022-08-14T07:43:43.188Z,30.54
2022-08-14T07:44:45.819Z,30.51
2022-08-14T07:45:43.245Z,30.54
2022-08-14T07:46:43.275Z,30.52
2022-08-14T07:47:43.304Z,30.62
2022-08-14T07:48:43.340Z,30.54
2022-08-14T07:49:43.539Z,30.59
2022-08-14T07:50:43.392Z,30.56
2022-08-14T07:51:43.423Z,30.61
2022-08-14T07:52:43.715Z,30.63
2022-08-14T07:53:43.481Z,30.59
2022-08-14T07:54:43.513Z,30.58
2022-08-14T07:55:43.541Z,30.62
2022-08-14T07:56:47.854Z,30.63
2022-08-14T07:57:43.602Z,30.63
2022-08-14T07:58:51.618Z,30.71
2022-08-14T07:59:44.315Z,30.76
2022-08-14T08:00:43.692Z,30.81
2022-08-14T08:01:47.968Z,30.74
2022-08-14T08:02:44.007Z,30.80
2022-08-14T08:03:43.780Z,30.70
2022-08-14T08:04:43.813Z,30.76
2022-08-14T08:05:43.842Z,30.77
2022-08-14T08:06:43.870Z,30.76
2022-08-14T08:07:43.902Z,30.83
2022-08-14T08:08:43.927Z,30.91
2022-08-14T08:09:45.848Z,30.96
2022-08-14T08:11:01.374Z,30.95
2022-08-14T08:11:44.022Z,31.02
2022-08-14T08:12:44.185Z,31.14
2022-08-14T08:13:49.133Z,31.07
2022-08-14T08:14:56.064Z,31.05
2022-08-14T08:15:44.143Z,31.05
2022-08-14T08:16:44.173Z,30.96
2022-08-14T08:17:53.685Z,30.91
2022-08-14T08:18:44.232Z,30.81
2022-08-14T08:19:44.262Z,30.91
2022-08-14T08:20:44.295Z,30.71
2022-08-14T08:21:45.152Z,30.56
2022-08-14T08:22:47.940Z,30.43
2022-08-14T08:23:51.335Z,30.46
2022-08-14T08:24:44.413Z,30.40
2022-08-14T08:25:44.443Z,30.38
2022-08-14T08:26:44.473Z,30.43
2022-08-14T08:27:44.866Z,30.48
2022-08-14T08:28:44.528Z,30.46
2022-08-14T08:29:50.731Z,30.33
2022-08-14T08:30:45.052Z,30.20
2022-08-14T08:31:48.795Z,30.20
2022-08-14T08:32:44.716Z,30.16
2022-08-14T08:33:49.439Z,30.03
2022-08-14T08:34:44.872Z,30.10
2022-08-14T08:35:46.224Z,30.03
2022-08-14T08:36:46.484Z,30.02
2022-08-14T08:37:44.792Z,30.05
2022-08-14T08:39:14.494Z,30.06
2022-08-14T08:40:02.464Z,30.08
2022-08-14T08:40:44.916Z,30.11
2022-08-14T08:41:44.921Z,30.08
2022-08-14T08:42:45.083Z,30.05
2022-08-14T08:43:46.170Z,30.06
2022-08-14T08:44:44.992Z,30.06
2022-08-14T08:45:45.020Z,30.06
2022-08-14T08:46:45.050Z,30.08
2022-08-14T08:47:45.338Z,30.06
2022-08-14T08:48:53.701Z,30.10
2022-08-14T08:49:58.868Z,30.08
2022-08-14T08:50:45.164Z,30.14
2022-08-14T08:51:45.191Z,30.17
2022-08-14T08:52:46.808Z,30.11
2022-08-14T08:53:45.248Z,30.17
2022-08-14T08:54:45.276Z,30.20
2022-08-14T08:55:45.304Z,30.17
2022-08-14T08:56:45.333Z,30.18
2022-08-14T08:57:45.363Z,30.13
2022-08-14T08:58:45.392Z,30.13
2022-08-14T08:59:45.422Z,30.18
2022-08-14T09:00:45.498Z,30.16
2022-08-14T09:01:45.474Z,30.18
2022-08-14T09:02:45.706Z,30.20
2022-08-14T09:03:45.534Z,30.16
2022-08-14T09:04:53.314Z,30.20
2022-08-14T09:05:45.588Z,30.32
2022-08-14T09:07:00.336Z,30.32
2022-08-14T09:07:45.644Z,30.31
2022-08-14T09:08:45.678Z,30.33
2022-08-14T09:09:53.926Z,30.26
2022-08-14T09:10:45.732Z,30.20
2022-08-14T09:11:45.758Z,30.18
2022-08-14T09:12:46.752Z,30.24
2022-08-14T09:13:45.814Z,30.29
2022-08-14T09:14:45.844Z,30.14
2022-08-14T09:15:45.870Z,30.16
2022-08-14T09:16:48.410Z,30.16
2022-08-14T09:17:46.237Z,30.13
2022-08-14T09:18:45.955Z,30.20
2022-08-14T09:19:45.984Z,30.14
2022-08-14T09:20:46.013Z,30.18
2022-08-14T09:21:46.043Z,30.18
2022-08-14T09:22:48.381Z,30.23
2022-08-14T09:24:26.418Z,30.13
2022-08-14T09:24:46.124Z,30.16
2022-08-14T09:26:00.815Z,30.14
2022-08-14T09:26:49.507Z,30.17
2022-08-14T09:27:46.209Z,30.20
2022-08-14T09:28:46.238Z,30.18
2022-08-14T09:29:46.267Z,30.32
2022-08-14T09:30:46.297Z,30.21
2022-08-14T09:31:52.700Z,30.33
2022-08-14T09:32:58.820Z,30.38
2022-08-14T09:33:56.263Z,30.46
2022-08-14T09:34:58.400Z,30.39
2022-08-14T09:35:46.437Z,30.49
2022-08-14T09:36:46.468Z,30.48
2022-08-14T09:37:46.494Z,30.48
2022-08-14T09:38:46.530Z,30.39
2022-08-14T09:39:46.602Z,30.40
2022-08-14T09:40:47.762Z,30.39
2022-08-14T09:42:21.771Z,30.49
2022-08-14T09:42:50.139Z,30.54
2022-08-14T09:43:46.663Z,30.56
2022-08-14T09:44:49.649Z,30.54
2022-08-14T09:45:52.967Z,30.63
2022-08-14T09:46:49.729Z,30.77
2022-08-14T09:47:46.780Z,30.62
2022-08-14T09:48:46.806Z,30.76
2022-08-14T09:49:53.216Z,30.77
2022-08-14T09:50:46.864Z,30.78
2022-08-14T09:51:51.793Z,30.91
2022-08-14T09:52:48.756Z,30.91
2022-08-14T09:54:19.662Z,30.89
2022-08-14T09:54:46.979Z,30.96
2022-08-14T09:55:47.009Z,31.05
2022-08-14T09:56:47.039Z,31.05
2022-08-14T09:57:47.095Z,31.05
2022-08-14T09:58:47.095Z,31.18
2022-08-14T09:59:47.124Z,31.05
2022-08-14T10:00:47.152Z,31.08
2022-08-14T10:01:52.719Z,31.10
2022-08-14T10:02:47.406Z,31.18
2022-08-14T10:03:47.239Z,31.25
2022-08-14T10:04:50.129Z,31.23
2022-08-14T10:05:47.298Z,31.30
2022-08-14T10:06:47.328Z,31.33
2022-08-14T10:07:47.679Z,31.32
2022-08-14T10:08:51.152Z,31.37
2022-08-14T10:09:59.577Z,31.44
2022-08-14T10:10:57.045Z,31.48
2022-08-14T10:11:47.476Z,31.57
2022-08-14T10:12:47.604Z,31.64
2022-08-14T10:13:53.233Z,31.81
2022-08-14T10:14:53.523Z,31.95
2022-08-14T10:15:47.599Z,32.01
2022-08-14T10:16:47.627Z,32.09
2022-08-14T10:17:47.656Z,32.26
2022-08-14T10:18:47.689Z,32.35
2022-08-14T10:19:47.719Z,32.37
2022-08-14T10:20:49.970Z,32.48
2022-08-14T10:23:11.140Z,32.67
2022-08-14T10:23:14.963Z,32.71
2022-08-14T10:23:47.846Z,32.78
2022-08-14T10:24:51.063Z,32.94
2022-08-14T10:25:47.908Z,33.03
2022-08-14T10:26:47.941Z,33.12
2022-08-14T10:27:47.972Z,33.29
2022-08-14T10:29:17.930Z,33.35
2022-08-14T10:29:48.038Z,33.65
2022-08-14T10:30:48.090Z,33.66
2022-08-14T10:31:48.104Z,33.70
2022-08-14T10:32:49.800Z,33.67
2022-08-14T10:33:50.900Z,33.79
2022-08-14T10:34:52.709Z,33.97
2022-08-14T10:35:48.410Z,34.22
2022-08-14T10:36:48.270Z,34.40
2022-08-14T10:37:48.562Z,34.63
2022-08-14T10:38:51.915Z,34.76
2022-08-14T10:40:01.415Z,34.88
2022-08-14T10:40:51.949Z,35.15
2022-08-14T10:41:49.391Z,35.39
2022-08-14T10:42:48.490Z,35.57
2022-08-14T10:43:48.519Z,35.81
2022-08-14T10:44:48.552Z,36.13
2022-08-14T10:45:52.047Z,36.25
2022-08-14T10:47:40.203Z,36.31
2022-08-14T10:48:09.678Z,36.55
2022-08-14T10:48:48.699Z,36.91
2022-08-14T10:49:48.734Z,37.11
2022-08-14T10:50:48.773Z,37.19
2022-08-14T10:51:48.810Z,37.48
2022-08-14T10:52:48.846Z,37.67
2022-08-14T10:53:52.021Z,37.86
2022-08-14T10:54:48.923Z,38.04
2022-08-14T10:55:48.960Z,38.19
2022-08-14T10:56:48.997Z,38.44
2022-08-14T10:57:49.035Z,38.63
2022-08-14T10:58:49.074Z,38.70
2022-08-14T10:59:49.113Z,38.75
2022-08-14T11:00:49.153Z,38.82
2022-08-14T11:01:49.188Z,39.07
2022-08-14T11:02:54.501Z,39.19
2022-08-14T11:03:55.849Z,39.32
2022-08-14T11:04:49.336Z,39.33
2022-08-14T11:05:49.344Z,39.52
2022-08-14T11:06:49.391Z,39.66
2022-08-14T11:07:49.423Z,39.56
2022-08-14T11:08:50.701Z,39.60
2022-08-14T11:09:49.501Z,39.60
2022-08-14T11:10:49.539Z,39.60
2022-08-14T11:11:49.581Z,39.59
2022-08-14T11:12:49.711Z,39.59
2022-08-14T11:13:49.656Z,39.61
2022-08-14T11:14:49.696Z,39.63
2022-08-14T11:15:49.735Z,39.70
2022-08-14T11:16:53.584Z,39.71
2022-08-14T11:17:49.813Z,39.82
2022-08-14T11:18:50.839Z,40.05
2022-08-14T11:19:53.818Z,40.12
2022-08-14T11:20:49.928Z,40.23
2022-08-14T11:21:49.965Z,40.22
2022-08-14T11:22:55.673Z,40.36
2022-08-14T11:23:53.438Z,40.44
2022-08-14T11:24:54.091Z,40.61
2022-08-14T11:25:53.356Z,40.69
2022-08-14T11:26:50.159Z,40.71
2022-08-14T11:27:50.660Z,40.86
2022-08-14T11:28:50.252Z,40.98
2022-08-14T11:29:52.766Z,41.26
2022-08-14T11:30:54.105Z,41.45
2022-08-14T11:31:51.873Z,41.57
2022-08-14T11:32:50.394Z,41.83
2022-08-14T11:33:50.445Z,41.90
2022-08-14T11:34:50.477Z,42.03
2022-08-14T11:35:50.529Z,42.20
2022-08-14T11:37:09.667Z,42.34
2022-08-14T11:37:50.595Z,42.59
2022-08-14T11:38:50.636Z,42.71
2022-08-14T11:39:51.301Z,42.84
2022-08-14T11:40:50.716Z,42.89
2022-08-14T11:41:55.672Z,42.97
2022-08-14T11:42:58.143Z,43.14
2022-08-14T11:43:57.880Z,43.28
2022-08-14T11:44:50.880Z,43.39
2022-08-14T11:45:50.921Z,43.46
2022-08-14T11:46:50.963Z,43.41
2022-08-14T11:48:12.861Z,43.49
2022-08-14T11:49:02.202Z,43.44
2022-08-14T11:49:51.918Z,43.46
2022-08-14T11:50:51.131Z,43.28
2022-08-14T11:51:54.362Z,43.25
2022-08-14T11:52:51.264Z,43.29
2022-08-14T11:53:51.255Z,43.25
2022-08-14T11:54:51.294Z,43.15
2022-08-14T11:55:51.335Z,43.07
2022-08-14T11:56:51.377Z,43.03
2022-08-14T11:57:59.456Z,43.15
2022-08-14T11:58:51.460Z,43.12
2022-08-14T11:59:51.499Z,42.93
2022-08-14T12:00:52.665Z,42.96
2022-08-14T12:01:51.580Z,42.94
2022-08-14T12:03:03.570Z,42.93
2022-08-14T12:03:57.613Z,42.93
2022-08-14T12:04:51.736Z,42.96
2022-08-14T12:05:51.743Z,42.97
2022-08-14T12:06:51.793Z,42.81
2022-08-14T12:07:51.825Z,42.63
2022-08-14T12:08:52.890Z,42.56
2022-08-14T12:09:55.931Z,42.56
2022-08-14T12:10:51.947Z,42.56
2022-08-14T12:11:51.987Z,42.55
2022-08-14T12:12:52.028Z,42.70
2022-08-14T12:13:56.150Z,42.75
2022-08-14T12:14:52.108Z,42.66
2022-08-14T12:15:52.150Z,42.80
2022-08-14T12:16:52.187Z,42.86
2022-08-14T12:17:52.307Z,42.55
2022-08-14T12:18:52.268Z,42.40
2022-08-14T12:19:54.403Z,42.36
2022-08-14T12:20:59.350Z,42.14
2022-08-14T12:21:52.390Z,42.20
2022-08-14T12:22:54.887Z,42.10
2022-08-14T12:23:52.480Z,41.99
2022-08-14T12:24:52.507Z,41.87
2022-08-14T12:26:01.409Z,41.93
2022-08-14T12:26:52.588Z,42.02
2022-08-14T12:27:54.391Z,42.05
2022-08-14T12:28:59.377Z,42.00
2022-08-14T12:29:52.703Z,41.93
2022-08-14T12:30:53.596Z,41.88
2022-08-14T12:31:52.783Z,42.06
2022-08-14T12:32:52.821Z,41.98
2022-08-14T12:33:53.646Z,41.76
2022-08-14T12:34:52.901Z,41.81
2022-08-14T12:35:56.448Z,41.76
2022-08-14T12:36:52.978Z,41.67
2022-08-14T12:37:53.018Z,41.74
2022-08-14T12:38:54.218Z,41.76
2022-08-14T12:39:53.138Z,41.68
2022-08-14T12:40:53.138Z,41.71
2022-08-14T12:41:53.766Z,41.71
2022-08-14T12:42:53.851Z,41.65
2022-08-14T12:43:53.261Z,41.57
2022-08-14T12:44:53.292Z,41.52
2022-08-14T12:45:53.337Z,41.51
2022-08-14T12:46:53.373Z,41.48
2022-08-14T12:47:53.413Z,41.60
2022-08-14T12:48:53.453Z,41.52
2022-08-14T12:49:53.492Z,41.64
2022-08-14T12:50:53.527Z,41.61
2022-08-14T12:51:53.569Z,41.65
2022-08-14T12:53:06.436Z,41.65